createdAt,value
2023-04-10T00:00:41.556Z,5.17
2023-04-10T00:02:44.935Z,5.46
2023-04-10T00:04:49.722Z,5.47
2023-04-10T00:06:52.580Z,4.85
2023-04-10T00:08:55.347Z,5.41
2023-04-10T00:10:58.114Z,5.12
2023-04-10T00:13:03.525Z,5.36
2023-04-10T00:15:07.166Z,5.02
2023-04-10T00:17:10.076Z,5.31
2023-04-10T00:19:12.887Z,5.28
2023-04-10T00:21:17.408Z,4.90
2023-04-10T00:23:20.235Z,5.18
2023-04-10T00:25:24.074Z,4.80
2023-04-10T00:27:26.902Z,4.87
2023-04-10T00:29:29.706Z,4.99
2023-04-10T00:31:32.621Z,5.01
2023-04-10T00:33:35.549Z,5.05
2023-04-10T00:35:38.329Z,4.97
2023-04-10T00:37:42.525Z,4.98
2023-04-10T00:39:45.442Z,4.94
2023-04-10T00:41:48.223Z,4.79
2023-04-10T00:43:51.244Z,4.12
2023-04-10T00:45:54.248Z,4.62
2023-04-10T00:47:57.451Z,4.64
2023-04-10T00:50:01.298Z,4.62
2023-04-10T00:52:04.224Z,4.57
2023-04-10T00:54:10.332Z,4.61
2023-04-10T00:56:13.315Z,4.50
2023-04-10T00:58:17.460Z,4.47
2023-04-10T01:00:20.234Z,4.55
2023-04-10T01:02:24.225Z,4.59
2023-04-10T01:04:28.804Z,3.67
2023-04-10T01:06:49.313Z,4.57
2023-04-10T01:09:01.586Z,3.74
2023-04-10T01:11:11.451Z,4.56
2023-04-10T01:13:22.050Z,4.59
2023-04-10T01:15:27.917Z,4.57
2023-04-10T01:17:36.814Z,4.55
2023-04-10T01:20:03.138Z,4.54
2023-04-10T01:22:10.505Z,4.23
2023-04-10T01:24:25.411Z,4.37
2023-04-10T01:26:43.221Z,4.36
2023-04-10T01:29:01.508Z,4.37
2023-04-10T01:31:09.394Z,3.71
2023-04-10T01:33:15.037Z,3.35
2023-04-10T01:35:18.954Z,3.91
2023-04-10T01:37:25.652Z,3.76
2023-04-10T01:39:30.354Z,3.63
2023-04-10T01:41:37.238Z,4.06
2023-04-10T01:43:43.836Z,4.06
2023-04-10T01:45:52.696Z,4.01
2023-04-10T01:47:56.769Z,3.96
2023-04-10T01:50:00.474Z,3.98
2023-04-10T01:52:03.534Z,3.66
2023-04-10T01:54:07.244Z,3.09
2023-04-10T01:56:11.472Z,3.34
2023-04-10T01:58:20.870Z,3.58
2023-04-10T02:00:23.765Z,3.75
2023-04-10T02:02:32.065Z,3.68
2023-04-10T02:04:35.467Z,3.88
2023-04-10T02:06:46.037Z,3.91
2023-04-10T02:08:54.076Z,3.93
2023-04-10T02:11:03.540Z,3.93
2023-04-10T02:13:08.279Z,3.97
2023-04-10T02:15:12.971Z,3.95
2023-04-10T02:17:19.580Z,3.88
2023-04-10T02:19:28.887Z,3.90
2023-04-10T02:21:31.783Z,3.31
2023-04-10T02:23:34.922Z,3.10
2023-04-10T02:25:37.770Z,3.79
2023-04-10T02:27:40.894Z,2.24
2023-04-10T02:29:43.665Z,3.20
2023-04-10T02:31:47.389Z,2.32
2023-04-10T02:33:50.421Z,3.50
2023-04-10T02:35:54.581Z,3.59
2023-04-10T02:37:58.400Z,3.61
2023-04-10T02:40:01.301Z,3.49
2023-04-10T02:42:09.886Z,3.39
2023-04-10T02:44:14.307Z,3.69
2023-04-10T02:46:17.206Z,3.72
2023-04-10T02:48:20.102Z,3.78
2023-04-10T02:50:29.697Z,3.70
2023-04-10T02:52:33.972Z,3.88
2023-04-10T02:54:37.461Z,3.88
2023-04-10T02:56:40.427Z,3.17
2023-04-10T02:58:46.142Z,3.41
2023-04-10T03:00:50.802Z,3.52
2023-04-10T03:03:00.650Z,3.60
2023-04-10T03:05:11.417Z,3.64
2023-04-10T03:07:14.286Z,3.64
2023-04-10T03:09:18.661Z,3.38
2023-04-10T03:11:21.586Z,3.59
2023-04-10T03:13:24.429Z,3.33
2023-04-10T03:15:27.197Z,3.48
2023-04-10T03:17:30.010Z,2.49
2023-04-10T03:19:32.847Z,2.92
2023-04-10T03:21:35.643Z,3.17
2023-04-10T03:23:42.868Z,3.30
2023-04-10T03:25:51.231Z,3.35
2023-04-10T03:27:54.456Z,3.40
2023-04-10T03:29:58.526Z,3.39
2023-04-10T03:32:01.571Z,3.17
2023-04-10T03:34:05.707Z,3.24
2023-04-10T03:36:09.804Z,3.10
2023-04-10T03:38:12.645Z,3.28
2023-04-10T03:40:15.567Z,3.20
2023-04-10T03:42:20.022Z,3.21
2023-04-10T03:44:23.098Z,2.93
2023-04-10T03:46:27.108Z,3.00
2023-04-10T03:48:30.734Z,3.32
2023-04-10T03:50:33.751Z,3.34
2023-04-10T03:52:36.580Z,3.21
2023-04-10T03:54:39.995Z,2.63
2023-04-10T03:56:44.023Z,3.13
2023-04-10T03:58:48.852Z,3.15
2023-04-10T04:00:51.785Z,3.15
2023-04-10T04:03:05.178Z,3.18
2023-04-10T04:05:46.603Z,3.36
2023-04-10T04:08:00.598Z,3.43
2023-04-10T04:10:12.212Z,3.42
2023-04-10T04:12:24.747Z,3.43
2023-04-10T04:14:46.748Z,3.44
2023-04-10T04:17:01.454Z,3.46
2023-04-10T04:19:31.607Z,3.47
2023-04-10T04:22:00.990Z,3.46
2023-04-10T04:24:18.941Z,3.44
2023-04-10T04:26:29.984Z,3.47
2023-04-10T04:29:07.845Z,3.44
2023-04-10T04:31:32.453Z,3.49
2023-04-10T04:33:54.135Z,3.50
2023-04-10T04:36:24.672Z,3.54
2023-04-10T04:38:40.040Z,3.61
2023-04-10T04:41:02.328Z,3.63
2023-04-10T04:43:14.205Z,3.61
2023-04-10T04:45:37.308Z,3.65
2023-04-10T04:47:45.723Z,3.70
2023-04-10T04:50:02.190Z,3.72
2023-04-10T04:52:32.591Z,3.77
2023-04-10T04:54:55.772Z,3.76
2023-04-10T04:57:12.411Z,3.65
2023-04-10T04:59:35.498Z,3.21
2023-04-10T05:01:43.620Z,3.49
2023-04-10T05:03:55.484Z,3.51
2023-04-10T05:06:12.276Z,3.57
2023-04-10T05:08:41.995Z,3.62
2023-04-10T05:11:04.388Z,3.66
2023-04-10T05:13:25.728Z,3.63
2023-04-10T05:15:46.032Z,2.60
2023-04-10T05:18:13.738Z,3.63
2023-04-10T05:20:32.445Z,3.66
2023-04-10T05:22:53.968Z,3.63
2023-04-10T05:25:11.381Z,3.67
2023-04-10T05:27:35.044Z,4.00
2023-04-10T05:30:01.996Z,5.12
2023-04-10T05:32:23.991Z,5.66
2023-04-10T05:34:36.685Z,5.94
2023-04-10T05:37:12.845Z,6.06
2023-04-10T05:39:38.079Z,5.61
2023-04-10T05:42:16.287Z,4.41
2023-04-10T05:44:23.255Z,5.14
2023-04-10T05:46:41.802Z,5.00
2023-04-10T05:49:01.818Z,4.87
2023-04-10T05:51:18.176Z,4.82
2023-04-10T05:53:53.083Z,4.88
2023-04-10T05:56:02.065Z,4.78
2023-04-10T05:58:23.752Z,4.78
2023-04-10T06:00:46.779Z,4.47
2023-04-10T06:03:08.009Z,4.62
2023-04-10T06:05:21.601Z,4.84
2023-04-10T06:07:24.481Z,4.85
2023-04-10T06:09:28.597Z,4.63
2023-04-10T06:11:31.858Z,4.63
2023-04-10T06:13:36.048Z,4.37
2023-04-10T06:15:39.342Z,4.45
2023-04-10T06:17:44.219Z,3.49
2023-04-10T06:19:47.025Z,4.94
2023-04-10T06:21:49.808Z,4.98
2023-04-10T06:23:52.728Z,5.10
2023-04-10T06:25:57.235Z,5.26
2023-04-10T06:28:00.142Z,5.34
2023-04-10T06:30:03.072Z,5.46
2023-04-10T06:32:06.317Z,5.57
2023-04-10T06:34:12.950Z,5.65
2023-04-10T06:36:26.063Z,5.70
2023-04-10T06:38:37.814Z,5.21
2023-04-10T06:40:41.565Z,5.91
2023-04-10T06:42:45.647Z,6.01
2023-04-10T06:44:51.928Z,6.10
2023-04-10T06:46:54.798Z,5.73
2023-04-10T06:48:57.622Z,6.09
2023-04-10T06:51:01.502Z,6.34
2023-04-10T06:53:04.463Z,6.49
2023-04-10T06:55:08.274Z,6.66
2023-04-10T06:57:11.102Z,6.80
2023-04-10T06:59:15.717Z,5.48
2023-04-10T07:01:18.534Z,7.15
2023-04-10T07:03:21.408Z,7.23
2023-04-10T07:05:24.519Z,7.35
2023-04-10T07:07:27.301Z,7.35
2023-04-10T07:09:30.752Z,6.13
2023-04-10T07:11:33.505Z,7.63
2023-04-10T07:13:38.805Z,7.75
2023-04-10T07:15:42.926Z,7.83
2023-04-10T07:17:45.759Z,7.41
2023-04-10T07:19:48.544Z,7.94
2023-04-10T07:21:51.496Z,8.07
2023-04-10T07:23:54.277Z,8.11
2023-04-10T07:25:58.279Z,8.19
2023-04-10T07:28:01.031Z,8.31
2023-04-10T07:30:03.895Z,8.45
2023-04-10T07:32:08.238Z,8.58
2023-04-10T07:34:11.985Z,8.60
2023-04-10T07:36:14.803Z,8.66
2023-04-10T07:38:17.858Z,8.67
2023-04-10T07:40:20.907Z,8.68
2023-04-10T07:42:24.028Z,8.73
2023-04-10T07:44:28.546Z,8.82
2023-04-10T07:46:31.286Z,8.84
2023-04-10T07:48:35.376Z,8.90
2023-04-10T07:50:38.152Z,8.66
2023-04-10T07:52:40.927Z,9.02
2023-04-10T07:54:43.707Z,9.06
2023-04-10T07:56:46.536Z,9.16
2023-04-10T07:58:49.980Z,8.47
2023-04-10T08:00:52.823Z,9.20
2023-04-10T08:02:55.808Z,9.49
2023-04-10T08:05:00.102Z,9.49
2023-04-10T08:07:02.882Z,9.42
2023-04-10T08:09:05.704Z,9.56
2023-04-10T08:11:23.018Z,9.58
2023-04-10T08:13:25.801Z,9.56
2023-04-10T08:15:28.620Z,9.88
2023-04-10T08:17:31.376Z,9.89
2023-04-10T08:19:34.149Z,9.81
2023-04-10T08:21:38.242Z,10.25
2023-04-10T08:23:40.964Z,10.42
2023-04-10T08:25:43.779Z,10.52
2023-04-10T08:27:46.572Z,10.68
2023-04-10T08:29:49.361Z,10.82
2023-04-10T08:31:52.114Z,10.82
2023-04-10T08:33:55.348Z,10.84
2023-04-10T08:35:58.549Z,10.83
2023-04-10T08:38:13.406Z,11.02
2023-04-10T08:40:17.312Z,11.11
2023-04-10T08:42:20.074Z,11.02
2023-04-10T08:44:22.854Z,11.38
2023-04-10T08:46:26.070Z,11.01
2023-04-10T08:48:35.957Z,11.34
2023-04-10T08:50:43.291Z,11.39
2023-04-10T08:52:49.159Z,11.78
2023-04-10T08:54:56.626Z,11.94
2023-04-10T08:57:01.311Z,11.98
2023-04-10T08:59:04.742Z,12.12
2023-04-10T09:01:08.313Z,12.43
2023-04-10T09:03:14.309Z,12.67
2023-04-10T09:05:17.651Z,12.82
2023-04-10T09:07:20.441Z,12.73
2023-04-10T09:09:23.134Z,12.81
2023-04-10T09:12:03.853Z,12.79
2023-04-10T09:14:21.493Z,12.74
2023-04-10T09:16:30.104Z,12.96
2023-04-10T09:18:51.628Z,13.27
2023-04-10T09:20:54.412Z,13.56
2023-04-10T09:22:57.606Z,13.61
2023-04-10T09:25:01.317Z,13.74
2023-04-10T09:27:05.975Z,13.12
2023-04-10T09:29:10.948Z,13.74
2023-04-10T09:31:29.914Z,14.10
2023-04-10T09:33:32.756Z,14.24
2023-04-10T09:35:39.492Z,14.25
2023-04-10T09:37:43.371Z,14.55
2023-04-10T09:39:46.119Z,14.66
2023-04-10T09:41:50.882Z,13.66
2023-04-10T09:44:06.807Z,14.30
2023-04-10T09:46:09.612Z,14.66
2023-04-10T09:48:12.389Z,14.76
2023-04-10T09:50:15.211Z,15.02
2023-04-10T09:52:22.498Z,15.26
2023-04-10T09:54:38.293Z,15.49
2023-04-10T09:56:41.026Z,15.67
2023-04-10T09:58:43.917Z,15.91
2023-04-10T10:00:50.074Z,15.03
2023-04-10T10:02:54.479Z,15.17
2023-04-10T10:05:00.637Z,16.03
2023-04-10T10:07:03.639Z,16.14
2023-04-10T10:09:06.831Z,16.37
2023-04-10T10:11:12.152Z,16.48
2023-04-10T10:13:18.945Z,16.74
2023-04-10T10:15:29.694Z,16.63
2023-04-10T10:17:40.471Z,16.84
2023-04-10T10:19:51.206Z,16.86
2023-04-10T10:21:55.870Z,16.76
2023-04-10T10:24:01.615Z,17.17
2023-04-10T10:26:06.714Z,17.08
2023-04-10T10:28:14.155Z,17.68
2023-04-10T10:30:29.374Z,17.68
2023-04-10T10:32:35.676Z,18.12
2023-04-10T10:34:38.638Z,18.06
2023-04-10T10:36:41.587Z,18.38
2023-04-10T10:38:59.006Z,18.42
2023-04-10T10:41:07.709Z,18.23
2023-04-10T10:43:16.146Z,18.29
2023-04-10T10:45:23.251Z,18.39
2023-04-10T10:47:28.900Z,18.46
2023-04-10T10:49:54.626Z,18.21
2023-04-10T10:51:57.317Z,18.06
2023-04-10T10:54:00.040Z,18.29
2023-04-10T10:56:34.377Z,18.72
2023-04-10T10:58:50.882Z,18.81
2023-04-10T11:01:10.788Z,19.12
2023-04-10T11:03:29.260Z,19.41
2023-04-10T11:05:54.179Z,19.65
2023-04-10T11:08:09.906Z,19.32
2023-04-10T11:10:12.687Z,19.95
2023-04-10T11:12:16.548Z,20.31
2023-04-10T11:14:20.319Z,20.57
2023-04-10T11:16:24.533Z,20.58
2023-04-10T11:19:13.109Z,20.69
2023-04-10T11:21:20.006Z,20.91
2023-04-10T11:23:22.839Z,20.45
2023-04-10T11:25:47.529Z,20.95
2023-04-10T11:27:51.618Z,21.25
2023-04-10T11:29:54.871Z,20.98
2023-04-10T11:31:59.076Z,21.36
2023-04-10T11:34:03.904Z,21.48
2023-04-10T11:36:07.746Z,21.28
2023-04-10T11:38:14.381Z,21.85
2023-04-10T11:40:17.377Z,22.13
2023-04-10T11:42:21.969Z,22.37
2023-04-10T11:44:35.837Z,22.49
2023-04-10T11:46:39.565Z,21.99
2023-04-10T11:48:42.302Z,21.60
2023-04-10T11:50:45.488Z,21.80
2023-04-10T11:52:48.765Z,21.77
2023-04-10T11:54:52.822Z,20.42
2023-04-10T11:57:02.116Z,21.75
2023-04-10T11:59:07.637Z,22.62
2023-04-10T12:01:14.294Z,23.13
2023-04-10T12:03:17.091Z,22.98
2023-04-10T12:05:20.083Z,23.31
2023-04-10T12:07:25.473Z,23.50
2023-04-10T12:09:28.245Z,23.61
2023-04-10T12:11:32.368Z,23.91
2023-04-10T12:13:35.090Z,23.68
2023-04-10T12:15:38.715Z,23.47
2023-04-10T12:17:41.515Z,23.17
2023-04-10T12:19:44.280Z,23.06
2023-04-10T12:21:47.526Z,22.40
2023-04-10T12:23:50.278Z,22.57
2023-04-10T12:25:53.389Z,22.79
2023-04-10T12:27:57.506Z,22.76
2023-04-10T12:30:00.282Z,22.76
2023-04-10T12:32:09.309Z,22.89
2023-04-10T12:34:19.658Z,23.00
2023-04-10T12:36:22.990Z,22.76
2023-04-10T12:38:39.896Z,22.31
2023-04-10T12:41:00.479Z,22.83
2023-04-10T12:43:04.645Z,22.75
2023-04-10T12:45:09.873Z,22.82
2023-04-10T12:47:12.607Z,22.51
2023-04-10T12:49:17.194Z,22.21
2023-04-10T12:51:20.048Z,22.32
2023-04-10T12:53:22.906Z,22.63
2023-04-10T12:55:25.845Z,22.70
2023-04-10T12:57:28.679Z,22.46
2023-04-10T12:59:32.773Z,22.46
2023-04-10T13:01:35.601Z,22.53
2023-04-10T13:03:39.185Z,22.41
2023-04-10T13:05:42.183Z,22.34
2023-04-10T13:07:44.936Z,22.23
2023-04-10T13:09:47.667Z,22.55
2023-04-10T13:11:52.409Z,22.42
2023-04-10T13:13:55.345Z,22.50
2023-04-10T13:15:59.690Z,22.49
2023-04-10T13:18:05.243Z,22.27
2023-04-10T13:20:10.745Z,22.38
2023-04-10T13:22:13.483Z,22.13
2023-04-10T13:24:16.880Z,22.32
2023-04-10T13:26:19.711Z,22.11
2023-04-10T13:28:22.548Z,22.18
2023-04-10T13:30:25.292Z,22.28
2023-04-10T13:32:29.374Z,22.12
2023-04-10T13:34:32.215Z,22.19
2023-04-10T13:36:35.038Z,21.97
2023-04-10T13:38:38.524Z,21.53
2023-04-10T13:40:41.297Z,21.87
2023-04-10T13:42:44.044Z,21.82
2023-04-10T13:44:46.814Z,22.03
2023-04-10T13:46:49.609Z,22.01
2023-04-10T13:48:53.701Z,21.94
2023-04-10T13:50:56.445Z,22.02
2023-04-10T13:52:59.225Z,22.22
2023-04-10T13:55:02.150Z,22.09
2023-04-10T13:57:05.114Z,21.90
2023-04-10T13:59:07.902Z,22.09
2023-04-10T14:01:12.369Z,21.97
2023-04-10T14:03:15.316Z,21.78
2023-04-10T14:05:19.685Z,21.88
2023-04-10T14:07:22.492Z,21.38
2023-04-10T14:09:25.467Z,21.32
2023-04-10T14:11:28.226Z,22.05
2023-04-10T14:13:31.033Z,21.94
2023-04-10T14:15:33.896Z,21.80
2023-04-10T14:17:36.740Z,22.20
2023-04-10T14:19:39.856Z,22.39
2023-04-10T14:21:44.584Z,22.37
2023-04-10T14:23:47.402Z,21.93
2023-04-10T14:25:51.282Z,22.48
2023-04-10T14:27:54.066Z,22.37
2023-04-10T14:29:56.860Z,22.68
2023-04-10T14:31:59.823Z,22.28
2023-04-10T14:34:02.609Z,22.97
2023-04-10T14:36:06.118Z,22.92
2023-04-10T14:38:10.790Z,23.03
2023-04-10T14:40:13.560Z,23.09
2023-04-10T14:42:16.372Z,23.10
2023-04-10T14:44:19.290Z,22.95
2023-04-10T14:46:22.022Z,22.37
2023-04-10T14:48:24.937Z,23.03
2023-04-10T14:50:27.775Z,22.57
2023-04-10T14:52:30.609Z,22.86
2023-04-10T14:54:34.746Z,22.88
2023-04-10T14:56:37.538Z,22.83
2023-04-10T14:58:40.388Z,22.65
2023-04-10T15:00:43.687Z,22.83
2023-04-10T15:02:46.723Z,22.85
2023-04-10T15:04:49.618Z,22.70
2023-04-10T15:06:52.344Z,22.81
2023-04-10T15:08:55.887Z,22.66
2023-04-10T15:11:00.324Z,22.69
2023-04-10T15:13:03.278Z,22.87
2023-04-10T15:15:07.116Z,22.66
2023-04-10T15:17:09.905Z,22.89
2023-04-10T15:19:12.834Z,22.90
2023-04-10T15:21:15.657Z,22.36
2023-04-10T15:23:18.436Z,22.86
2023-04-10T15:25:21.177Z,22.56
2023-04-10T15:27:25.360Z,22.45
2023-04-10T15:29:28.799Z,22.40
2023-04-10T15:31:31.586Z,22.32
2023-04-10T15:33:36.126Z,22.21
2023-04-10T15:35:38.883Z,22.00
2023-04-10T15:37:41.654Z,21.94
2023-04-10T15:39:44.333Z,21.74
2023-04-10T15:41:48.382Z,21.54
2023-04-10T15:43:52.819Z,21.32
2023-04-10T15:45:56.109Z,21.04
2023-04-10T15:48:01.093Z,21.10
2023-04-10T15:50:04.581Z,20.96
2023-04-10T15:52:07.844Z,20.85
2023-04-10T15:54:11.054Z,20.73
2023-04-10T15:56:15.981Z,20.61
2023-04-10T15:58:18.929Z,20.39
2023-04-10T16:00:26.255Z,20.27
2023-04-10T16:02:29.184Z,20.21
2023-04-10T16:04:32.489Z,19.92
2023-04-10T16:06:35.412Z,19.88
2023-04-10T16:08:38.154Z,19.83
2023-04-10T16:10:40.934Z,19.73
2023-04-10T16:12:43.561Z,19.50
2023-04-10T16:14:46.273Z,19.54
2023-04-10T16:16:50.949Z,19.34
2023-04-10T16:18:54.175Z,19.40
2023-04-10T16:20:56.925Z,19.41
2023-04-10T16:22:59.895Z,18.98
2023-04-10T16:27:10.298Z,19.16
2023-04-10T16:29:12.954Z,19.13
2023-04-10T16:31:15.670Z,19.13
2023-04-10T16:33:19.764Z,19.08
2023-04-10T16:35:22.764Z,18.97
2023-04-10T16:37:25.489Z,18.92
2023-04-10T16:39:28.281Z,18.85
2023-04-10T16:41:31.080Z,18.79
2023-04-10T16:43:33.783Z,18.77
2023-04-10T16:45:36.459Z,18.71
2023-04-10T16:47:40.402Z,18.66
2023-04-10T16:49:45.700Z,18.46
2023-04-10T16:51:48.421Z,18.27
2023-04-10T16:53:51.147Z,18.00
2023-04-10T16:55:58.512Z,18.15
2023-04-10T16:58:01.225Z,18.15
2023-04-10T17:00:04.276Z,18.06
2023-04-10T17:02:07.101Z,18.02
2023-04-10T17:04:10.512Z,17.99
2023-04-10T17:06:15.892Z,17.52
2023-04-10T17:08:18.687Z,17.72
2023-04-10T17:10:21.375Z,17.44
2023-04-10T17:12:24.111Z,17.66
2023-04-10T17:14:26.837Z,17.51
2023-04-10T17:16:29.565Z,17.53
2023-04-10T17:18:32.367Z,17.42
2023-04-10T17:20:36.820Z,17.38
2023-04-10T17:22:41.083Z,17.36
2023-04-10T17:24:44.562Z,17.08
2023-04-10T17:26:47.413Z,17.19
2023-04-10T17:28:50.902Z,16.88
2023-04-10T17:30:53.697Z,16.73
2023-04-10T17:32:56.445Z,16.61
2023-04-10T17:34:59.344Z,16.77
2023-04-10T17:37:02.455Z,16.44
2023-04-10T17:39:06.642Z,16.67
2023-04-10T17:41:10.288Z,16.47
2023-04-10T17:43:13.016Z,16.63
2023-04-10T17:45:15.933Z,16.48
2023-04-10T17:47:18.880Z,16.43
2023-04-10T17:49:22.293Z,16.20
2023-04-10T17:51:25.112Z,16.32
2023-04-10T17:53:27.882Z,16.29
2023-04-10T17:55:32.053Z,16.32
2023-04-10T17:57:34.789Z,15.94
2023-04-10T17:59:37.579Z,16.03
2023-04-10T18:01:40.478Z,16.07
2023-04-10T18:03:43.412Z,16.07
2023-04-10T18:05:46.208Z,16.03
2023-04-10T18:07:49.033Z,15.06
2023-04-10T18:09:51.814Z,16.00
2023-04-10T18:11:56.048Z,15.97
2023-04-10T18:13:58.776Z,15.89
2023-04-10T18:16:02.164Z,15.62
2023-04-10T18:18:04.952Z,15.56
2023-04-10T18:20:08.622Z,15.75
2023-04-10T18:22:11.825Z,15.45
2023-04-10T18:24:15.040Z,15.71
2023-04-10T18:26:20.728Z,15.41
2023-04-10T18:28:24.840Z,15.08
2023-04-10T18:30:27.582Z,15.48
2023-04-10T18:32:30.381Z,15.37
2023-04-10T18:34:33.140Z,15.37
2023-04-10T18:36:35.988Z,15.34
2023-04-10T18:38:41.105Z,15.31
2023-04-10T18:40:43.879Z,14.92
2023-04-10T18:42:46.617Z,14.95
2023-04-10T18:44:50.802Z,14.98
2023-04-10T18:47:01.430Z,14.76
2023-04-10T18:49:06.427Z,14.86
2023-04-10T18:51:10.022Z,14.66
2023-04-10T18:53:12.793Z,13.68
2023-04-10T18:55:15.936Z,14.75
2023-04-10T18:57:18.647Z,14.76
2023-04-10T18:59:22.452Z,14.74
2023-04-10T19:01:26.531Z,14.33
2023-04-10T19:03:29.573Z,14.84
2023-04-10T19:05:33.527Z,14.80
2023-04-10T19:07:36.317Z,13.77
2023-04-10T19:09:38.983Z,14.64
2023-04-10T19:11:42.681Z,14.80
2023-04-10T19:13:45.600Z,14.84
2023-04-10T19:15:49.899Z,14.81
2023-04-10T19:17:54.892Z,14.73
2023-04-10T19:19:58.751Z,14.78
2023-04-10T19:22:01.894Z,14.60
2023-04-10T19:24:04.756Z,14.58
2023-04-10T19:26:08.634Z,14.73
2023-04-10T19:28:11.383Z,14.79
2023-04-10T19:30:15.453Z,14.43
2023-04-10T19:32:18.454Z,14.68
2023-04-10T19:34:22.572Z,14.57
2023-04-10T19:36:27.116Z,14.51
2023-04-10T19:38:30.597Z,14.64
2023-04-10T19:40:33.319Z,13.61
2023-04-10T19:42:36.549Z,14.57
2023-04-10T19:44:39.414Z,14.50
2023-04-10T19:46:42.513Z,14.32
2023-04-10T19:48:45.652Z,14.60
2023-04-10T19:50:49.791Z,14.59
2023-04-10T19:52:52.843Z,14.39
2023-04-10T19:54:55.661Z,14.54
2023-04-10T19:56:58.651Z,14.55
2023-04-10T19:59:01.920Z,14.62
2023-04-10T20:01:05.288Z,14.55
2023-04-10T20:03:08.320Z,13.98
2023-04-10T20:05:11.438Z,14.28
2023-04-10T20:07:15.673Z,13.39
2023-04-10T20:09:18.538Z,14.59
2023-04-10T20:11:21.279Z,14.59
2023-04-10T20:13:24.024Z,14.54
2023-04-10T20:15:26.935Z,14.52
2023-04-10T20:17:30.166Z,14.56
2023-04-10T20:19:32.937Z,14.51
2023-04-10T20:21:35.787Z,14.53
2023-04-10T20:23:39.901Z,14.45
2023-04-10T20:25:42.706Z,14.22
2023-04-10T20:27:45.496Z,14.42
2023-04-10T20:29:48.334Z,14.41
2023-04-10T20:31:51.174Z,14.46
2023-04-10T20:33:54.751Z,14.42
2023-04-10T20:35:57.649Z,14.41
2023-04-10T20:38:00.489Z,14.43
2023-04-10T20:40:05.075Z,14.31
2023-04-10T20:42:07.816Z,13.16
2023-04-10T20:44:10.572Z,14.36
2023-04-10T20:46:13.643Z,14.40
2023-04-10T20:48:16.342Z,13.84
2023-04-10T20:50:19.578Z,14.23
2023-04-10T20:52:22.470Z,14.01
2023-04-10T20:54:26.800Z,14.12
2023-04-10T20:56:40.600Z,14.31
2023-04-10T20:58:46.032Z,14.23
2023-04-10T21:00:51.527Z,14.23
2023-04-10T21:02:54.450Z,14.23
2023-04-10T21:04:57.385Z,14.15
2023-04-10T21:07:00.167Z,14.01
2023-04-10T21:09:02.949Z,13.76
2023-04-10T21:11:05.818Z,13.26
2023-04-10T21:13:09.962Z,14.00
2023-04-10T21:15:12.773Z,13.72
2023-04-10T21:17:15.930Z,13.73
2023-04-10T21:19:18.697Z,13.78
2023-04-10T21:21:21.489Z,13.69
2023-04-10T21:23:24.259Z,13.65
2023-04-10T21:25:27.041Z,13.72
2023-04-10T21:27:29.811Z,13.78
2023-04-10T21:29:33.956Z,13.61
2023-04-10T21:31:36.802Z,12.89
2023-04-10T21:33:39.575Z,13.14
2023-04-10T21:35:43.474Z,13.63
2023-04-10T21:37:46.265Z,13.58
2023-04-10T21:39:49.048Z,13.67
2023-04-10T21:41:51.887Z,13.71
2023-04-10T21:43:56.441Z,13.73
2023-04-10T21:46:02.697Z,13.46
2023-04-10T21:48:05.861Z,13.67
2023-04-10T21:50:09.573Z,13.69
2023-04-10T21:52:12.529Z,13.70
2023-04-10T21:54:15.351Z,13.53
2023-04-10T21:56:18.078Z,13.59
2023-04-10T21:58:20.822Z,13.67
2023-04-10T22:00:23.649Z,13.21
2023-04-10T22:02:27.930Z,13.66
2023-04-10T22:04:33.093Z,13.63
2023-04-10T22:06:36.003Z,13.62
2023-04-10T22:08:39.116Z,13.58
2023-04-10T22:10:44.853Z,13.60
2023-04-10T22:12:48.813Z,13.55
2023-04-10T22:14:52.041Z,13.53
2023-04-10T22:16:56.050Z,13.45
2023-04-10T22:19:00.709Z,13.46
2023-04-10T22:21:03.395Z,13.46
2023-04-10T22:23:06.989Z,13.41
2023-04-10T22:25:10.045Z,13.27
2023-04-10T22:27:12.725Z,13.48
2023-04-10T22:29:15.596Z,13.47
2023-04-10T22:31:19.916Z,13.46
2023-04-10T22:33:22.755Z,13.46
2023-04-10T22:35:26.861Z,13.41
2023-04-10T22:37:29.623Z,13.42
2023-04-10T22:39:32.310Z,13.38
2023-04-10T22:41:35.062Z,13.45
2023-04-10T22:43:37.783Z,13.44
2023-04-10T22:45:41.672Z,13.29
2023-04-10T22:47:44.452Z,12.96
2023-04-10T22:49:47.180Z,13.25
2023-04-10T22:51:51.249Z,13.47
2023-04-10T22:53:54.020Z,13.32
2023-04-10T22:55:56.734Z,13.43
2023-04-10T22:57:59.431Z,13.42
2023-04-10T23:00:02.121Z,13.36
2023-04-10T23:02:05.061Z,13.22
2023-04-10T23:04:07.988Z,13.45
2023-04-10T23:06:10.943Z,13.21
2023-04-10T23:08:15.254Z,13.31
2023-04-10T23:10:18.040Z,13.52
2023-04-10T23:12:20.737Z,13.40
2023-04-10T23:14:23.605Z,13.23
2023-04-10T23:16:26.381Z,13.04
2023-04-10T23:18:29.181Z,13.39
2023-04-10T23:20:31.866Z,13.24
2023-04-10T23:22:34.578Z,13.56
2023-04-10T23:24:38.890Z,13.60
2023-04-10T23:26:41.576Z,13.34
2023-04-10T23:28:44.256Z,13.52
2023-04-10T23:30:47.029Z,13.58
2023-04-10T23:32:49.732Z,13.40
2023-04-10T23:34:52.490Z,13.50
2023-04-10T23:36:55.745Z,12.54
2023-04-10T23:38:58.477Z,13.08
2023-04-10T23:41:03.590Z,13.73
2023-04-10T23:43:06.393Z,13.59
2023-04-10T23:45:10.324Z,13.70
2023-04-10T23:47:13.353Z,13.67
2023-04-10T23:49:16.139Z,13.73
2023-04-10T23:51:18.867Z,13.70
2023-04-10T23:53:21.614Z,13.69
2023-04-10T23:55:24.417Z,13.75
2023-04-10T23:57:28.881Z,13.74
2023-04-10T23:59:31.627Z,13.77
